createdAt,value
2023-01-11T00:00:15.731Z,2.5
2023-01-11T00:01:16.553Z,2.200000048
2023-01-11T00:02:17.321Z,2.700000048
2023-01-11T00:03:18.168Z,2.099999905
2023-01-11T00:04:18.985Z,1.5
2023-01-11T00:05:20.399Z,2.799999952
2023-01-11T00:06:21.498Z,3.799999952
2023-01-11T00:07:22.290Z,2.599999905
2023-01-11T00:08:23.915Z,2.299999952
2023-01-11T00:09:24.713Z,2.900000095
2023-01-11T00:10:25.560Z,1.899999976
2023-01-11T00:11:26.361Z,1.700000048
2023-01-11T00:12:27.820Z,2.5
2023-01-11T00:13:59.117Z,2.200000048
2023-01-11T00:14:59.866Z,5.5
2023-01-11T00:16:01.400Z,1.899999976
2023-01-11T00:17:02.387Z,2.900000095
2023-01-11T00:18:03.470Z,2.599999905
2023-01-11T00:19:04.966Z,3.900000095
2023-01-11T00:20:05.875Z,3.5
2023-01-11T00:21:06.664Z,4.199999809
2023-01-11T00:22:07.544Z,3.200000048
2023-01-11T00:23:08.321Z,2
2023-01-11T00:24:09.166Z,2.799999952
2023-01-11T00:25:09.973Z,3.400000095
2023-01-11T00:26:11.385Z,3.400000095
2023-01-11T00:27:12.308Z,3.200000048
2023-01-11T00:28:13.152Z,2.099999905
2023-01-11T00:29:14.064Z,2.099999905
2023-01-11T00:30:15.103Z,3.599999905
2023-01-11T00:31:16.119Z,2.700000048
2023-01-11T00:32:17.099Z,1.799999952
2023-01-11T00:33:17.928Z,1.299999952
2023-01-11T00:34:18.727Z,1.899999976
2023-01-11T00:35:20.272Z,1.899999976
2023-01-11T00:36:21.271Z,1.799999952
2023-01-11T00:37:22.777Z,3.299999952
2023-01-11T00:38:23.590Z,2.299999952
2023-01-11T00:39:24.416Z,2.700000048
2023-01-11T00:40:25.275Z,3.099999905
2023-01-11T00:41:26.097Z,2.200000048
2023-01-11T00:42:27.391Z,1.899999976
2023-01-11T00:43:59.438Z,3.200000048
2023-01-11T00:45:00.308Z,2.099999905
2023-01-11T00:46:01.952Z,2.400000095
2023-01-11T00:47:02.917Z,2.599999905
2023-01-11T00:48:03.766Z,2.299999952
2023-01-11T00:49:04.716Z,3
2023-01-11T00:50:05.596Z,2.099999905
2023-01-11T00:51:06.445Z,2.299999952
2023-01-11T00:52:07.818Z,2.200000048
2023-01-11T00:53:08.655Z,2.900000095
2023-01-11T00:54:09.612Z,1.899999976
2023-01-11T00:55:10.556Z,3.799999952
2023-01-11T00:56:12.462Z,2.799999952
2023-01-11T00:57:13.469Z,4.400000095
2023-01-11T00:58:14.400Z,3.799999952
2023-01-11T00:59:15.218Z,2.900000095
2023-01-11T01:00:16.088Z,1.899999976
2023-01-11T01:01:17.100Z,1.799999952
2023-01-11T01:02:18.041Z,1.899999976
2023-01-11T01:03:18.953Z,2
2023-01-11T01:04:19.763Z,2
2023-01-11T01:05:20.629Z,2.5
2023-01-11T01:06:22.486Z,2.200000048
2023-01-11T01:07:23.982Z,2.299999952
2023-01-11T01:08:25.043Z,2.200000048
2023-01-11T01:09:26.033Z,2.400000095
2023-01-11T01:10:58.450Z,2.700000048
2023-01-11T01:11:59.500Z,1.399999976
2023-01-11T01:13:00.459Z,4
2023-01-11T01:14:02.211Z,2.299999952
2023-01-11T01:15:03.110Z,1.799999952
2023-01-11T01:16:05.045Z,3
2023-01-11T01:17:05.683Z,2.400000095
2023-01-11T01:18:06.639Z,3.200000048
2023-01-11T01:19:07.572Z,2.900000095
2023-01-11T01:20:08.512Z,2.700000048
2023-01-11T01:21:09.412Z,2.099999905
2023-01-11T01:22:10.196Z,1.899999976
2023-01-11T01:23:11.187Z,2.700000048
2023-01-11T01:24:12.963Z,2.099999905
2023-01-11T01:25:13.834Z,2.900000095
2023-01-11T01:26:14.605Z,2.5
2023-01-11T01:27:15.874Z,2.200000048
2023-01-11T01:28:16.709Z,2.099999905
2023-01-11T01:29:17.611Z,3.299999952
2023-01-11T01:30:18.521Z,2.200000048
2023-01-11T01:31:19.468Z,3.299999952
2023-01-11T01:32:20.204Z,3.599999905
2023-01-11T01:33:21.073Z,3.200000048
2023-01-11T01:34:22.062Z,2.5
2023-01-11T01:35:22.958Z,2.200000048
2023-01-11T01:36:24.372Z,4
2023-01-11T01:37:25.131Z,4.099999905
2023-01-11T01:38:57.650Z,2.5
2023-01-11T01:39:58.635Z,1.700000048
2023-01-11T01:40:59.538Z,3.099999905
2023-01-11T01:42:00.345Z,3.200000048
2023-01-11T01:43:01.123Z,2.900000095
2023-01-11T01:44:01.959Z,2.299999952
2023-01-11T01:45:03.385Z,2.099999905
2023-01-11T01:46:04.917Z,2.5
2023-01-11T01:47:05.773Z,2.400000095
2023-01-11T01:48:06.524Z,2.400000095
2023-01-11T01:49:07.310Z,2.700000048
2023-01-11T01:50:08.185Z,3.099999905
2023-01-11T01:51:09.037Z,2.599999905
2023-01-11T01:52:10.006Z,2.799999952
2023-01-11T01:53:10.816Z,3.400000095
2023-01-11T01:54:11.670Z,3.599999905
2023-01-11T01:55:13.336Z,2.200000048
2023-01-11T01:56:14.222Z,3.799999952
2023-01-11T01:57:16.004Z,2.5
2023-01-11T01:58:16.817Z,3.900000095
2023-01-11T01:59:17.672Z,4.400000095
2023-01-11T02:00:18.487Z,1.600000024
2023-01-11T02:01:19.882Z,2.700000048
2023-01-11T02:02:20.873Z,2
2023-01-11T02:03:21.818Z,3.299999952
2023-01-11T02:04:22.574Z,1.799999952
2023-01-11T02:05:23.342Z,2.599999905
2023-01-11T02:06:25.018Z,3.200000048
2023-01-11T02:07:25.863Z,2.099999905
2023-01-11T02:08:57.496Z,1.700000048
2023-01-11T02:09:58.301Z,1.899999976
2023-01-11T02:10:59.085Z,1.399999976
2023-01-11T02:11:59.929Z,3.200000048
2023-01-11T02:13:00.865Z,2.299999952
2023-01-11T02:14:01.836Z,1.600000024
2023-01-11T02:15:03.322Z,2
2023-01-11T02:16:04.158Z,2.5
2023-01-11T02:17:05.865Z,1.899999976
2023-01-11T02:18:06.760Z,1.5
2023-01-11T02:19:07.729Z,2.200000048
2023-01-11T02:20:08.592Z,3.099999905
2023-01-11T02:21:09.370Z,2.700000048
2023-01-11T02:22:10.255Z,1.5
2023-01-11T02:23:11.118Z,1.899999976
2023-01-11T02:24:12.030Z,3.099999905
2023-01-11T02:25:12.985Z,1.799999952
2023-01-11T02:26:14.394Z,2.599999905
2023-01-11T02:27:15.309Z,2.400000095
2023-01-11T02:28:16.177Z,2.5
2023-01-11T02:29:17.939Z,1.799999952
2023-01-11T02:30:18.851Z,2.599999905
2023-01-11T02:31:19.846Z,3.599999905
2023-01-11T02:32:20.563Z,1.899999976
2023-01-11T02:33:21.486Z,1.299999952
2023-01-11T02:34:22.492Z,1.600000024
2023-01-11T02:35:23.370Z,1.5
2023-01-11T02:36:24.917Z,1.700000048
2023-01-11T02:37:26.104Z,2
2023-01-11T02:38:57.627Z,2.799999952
2023-01-11T02:39:58.585Z,2.5
2023-01-11T02:40:59.524Z,2.200000048
2023-01-11T02:42:00.553Z,2.400000095
2023-01-11T02:43:01.563Z,1.899999976
2023-01-11T02:44:02.381Z,2.599999905
2023-01-11T02:45:03.932Z,2
2023-01-11T02:46:04.927Z,2.900000095
2023-01-11T02:47:06.432Z,2.400000095
2023-01-11T02:48:07.311Z,2.200000048
2023-01-11T02:49:08.074Z,2.299999952
2023-01-11T02:50:08.989Z,2.099999905
2023-01-11T02:51:09.875Z,2
2023-01-11T02:52:10.757Z,1.700000048
2023-01-11T02:53:11.649Z,2
2023-01-11T02:54:12.480Z,2.599999905
2023-01-11T02:55:13.298Z,2.900000095
2023-01-11T02:56:14.202Z,2.299999952
2023-01-11T02:57:15.936Z,2.599999905
2023-01-11T02:58:16.977Z,1.899999976
2023-01-11T02:59:17.799Z,3
2023-01-11T03:00:18.579Z,2
2023-01-11T03:01:19.584Z,2.5
2023-01-11T03:02:20.499Z,1.799999952
2023-01-11T03:03:21.524Z,2.099999905
2023-01-11T03:04:22.320Z,3.599999905
2023-01-11T03:05:23.118Z,2
2023-01-11T03:06:24.051Z,2.599999905
2023-01-11T03:07:25.889Z,1.899999976
2023-01-11T03:08:57.467Z,3.299999952
2023-01-11T03:09:58.284Z,1.600000024
2023-01-11T03:10:59.070Z,2.599999905
2023-01-11T03:11:59.947Z,2.700000048
2023-01-11T03:13:01.403Z,2.299999952
2023-01-11T03:14:02.403Z,1.600000024
2023-01-11T03:15:03.211Z,1.899999976
2023-01-11T03:16:04.091Z,1.299999952
2023-01-11T03:17:05.721Z,2.299999952
2023-01-11T03:18:06.594Z,3.900000095
2023-01-11T03:19:07.649Z,2.700000048
2023-01-11T03:20:08.453Z,3.700000048
2023-01-11T03:21:09.252Z,2.299999952
2023-01-11T03:22:10.041Z,3.099999905
2023-01-11T03:23:11.894Z,2
2023-01-11T03:24:12.890Z,2.5
2023-01-11T03:25:13.748Z,1.5
2023-01-11T03:26:14.581Z,3.900000095
2023-01-11T03:27:15.457Z,1.700000048
2023-01-11T03:28:16.932Z,1.5
2023-01-11T03:29:17.835Z,2.599999905
2023-01-11T03:30:18.672Z,2.799999952
2023-01-11T03:31:19.559Z,1.700000048
2023-01-11T03:32:20.327Z,2.599999905
2023-01-11T03:33:21.133Z,2.200000048
2023-01-11T03:34:22.053Z,2.700000048
2023-01-11T03:35:22.905Z,2.200000048
2023-01-11T03:36:23.860Z,2.5
2023-01-11T03:37:56.180Z,2.700000048
2023-01-11T03:38:57.213Z,2.599999905
2023-01-11T03:39:58.250Z,1.5
2023-01-11T03:40:59.133Z,1.899999976
2023-01-11T03:41:59.996Z,1.700000048
2023-01-11T03:43:00.835Z,1.899999976
2023-01-11T03:44:01.682Z,1.200000048
2023-01-11T03:45:02.583Z,1.700000048
2023-01-11T03:46:03.486Z,1.799999952
2023-01-11T03:47:05.455Z,3.299999952
2023-01-11T03:48:06.332Z,4.599999905
2023-01-11T03:49:07.132Z,2.400000095
2023-01-11T03:50:08.014Z,2.200000048
2023-01-11T03:51:08.918Z,3.099999905
2023-01-11T03:52:09.858Z,1.799999952
2023-01-11T03:53:10.731Z,2
2023-01-11T03:54:11.608Z,2.599999905
2023-01-11T03:55:12.429Z,3
2023-01-11T03:56:13.298Z,1.899999976
2023-01-11T03:57:14.914Z,2
2023-01-11T03:58:15.888Z,1.600000024
2023-01-11T03:59:16.669Z,3.200000048
2023-01-11T04:00:17.487Z,1.5
2023-01-11T04:01:18.319Z,2.599999905
2023-01-11T04:02:19.272Z,4.5
2023-01-11T04:03:20.950Z,2.400000095
2023-01-11T04:04:22.059Z,3.400000095
2023-01-11T04:05:23.055Z,2.900000095
2023-01-11T04:06:23.878Z,1.899999976
2023-01-11T04:07:55.967Z,2.5
2023-01-11T04:08:57.907Z,1.799999952
2023-01-11T04:09:58.856Z,2.900000095
2023-01-11T04:10:59.667Z,2
2023-01-11T04:12:00.596Z,3.099999905
2023-01-11T04:13:01.542Z,1.799999952
2023-01-11T04:14:02.521Z,3
2023-01-11T04:15:03.346Z,2.200000048
2023-01-11T04:16:04.244Z,2.099999905
2023-01-11T04:17:05.856Z,1.899999976
2023-01-11T04:18:07.394Z,3.599999905
2023-01-11T04:19:08.367Z,1.100000024
2023-01-11T04:20:09.277Z,1.600000024
2023-01-11T04:21:10.308Z,5.699999809
2023-01-11T04:22:11.004Z,2.299999952
2023-01-11T04:23:11.912Z,2.200000048
2023-01-11T04:24:12.863Z,2.299999952
2023-01-11T04:25:13.732Z,2.299999952
2023-01-11T04:26:14.697Z,2.5
2023-01-11T04:27:16.386Z,1.899999976
2023-01-11T04:28:17.187Z,2.099999905
2023-01-11T04:29:18.090Z,1.799999952
2023-01-11T04:30:19.063Z,2.400000095
2023-01-11T04:31:19.979Z,3.5
2023-01-11T04:32:20.749Z,2.900000095
2023-01-11T04:33:21.615Z,2
2023-01-11T04:34:22.661Z,3.400000095
2023-01-11T04:35:23.541Z,1.899999976
2023-01-11T04:36:24.901Z,2.900000095
2023-01-11T04:37:56.694Z,2.599999905
2023-01-11T04:38:58.264Z,2.400000095
2023-01-11T04:39:59.131Z,2.200000048
2023-01-11T04:41:00.037Z,2.099999905
2023-01-11T04:42:01.021Z,3.099999905
2023-01-11T04:43:01.941Z,2
2023-01-11T04:44:02.839Z,3.200000048
2023-01-11T04:45:03.617Z,1.100000024
2023-01-11T04:46:04.485Z,1.299999952
2023-01-11T04:47:05.998Z,1.600000024
2023-01-11T04:48:06.921Z,3.200000048
2023-01-11T04:49:07.725Z,3
2023-01-11T04:50:08.606Z,3
2023-01-11T04:51:09.449Z,1.299999952
2023-01-11T04:52:10.283Z,1.399999976
2023-01-11T04:53:11.208Z,2.900000095
2023-01-11T04:54:12.057Z,2.900000095
2023-01-11T04:55:13.673Z,1.899999976
2023-01-11T04:56:14.487Z,2.900000095
2023-01-11T04:57:15.947Z,1.200000048
2023-01-11T04:58:16.928Z,1.899999976
2023-01-11T04:59:17.771Z,2.200000048
2023-01-11T05:00:18.604Z,1
2023-01-11T05:01:19.478Z,2.099999905
2023-01-11T05:02:20.289Z,2
2023-01-11T05:03:21.111Z,2
2023-01-11T05:04:22.111Z,1.399999976
2023-01-11T05:05:22.929Z,1.200000048
2023-01-11T05:06:23.876Z,1.5
2023-01-11T05:07:55.930Z,2.599999905
2023-01-11T05:08:56.825Z,1.700000048
2023-01-11T05:09:58.409Z,1.5
2023-01-11T05:10:59.250Z,2.900000095
2023-01-11T05:12:00.041Z,1.100000024
2023-01-11T05:13:00.915Z,1.5
2023-01-11T05:14:01.933Z,3.900000095
2023-01-11T05:15:02.825Z,1.5
2023-01-11T05:16:03.693Z,1.799999952
2023-01-11T05:17:04.506Z,1
2023-01-11T05:18:06.387Z,2.400000095
2023-01-11T05:19:07.313Z,1.799999952
2023-01-11T05:20:08.268Z,1.899999976
2023-01-11T05:21:09.146Z,1.200000048
2023-01-11T05:22:10.786Z,2.200000048
2023-01-11T05:23:11.647Z,1.299999952
2023-01-11T05:24:12.622Z,1.200000048
2023-01-11T05:25:13.799Z,1.700000048
2023-01-11T05:26:14.755Z,2.400000095
2023-01-11T05:27:16.363Z,1.100000024
2023-01-11T05:28:17.203Z,2.5
2023-01-11T05:29:18.110Z,3.5
2023-01-11T05:30:18.991Z,2.299999952
2023-01-11T05:31:20.157Z,2.599999905
2023-01-11T05:32:20.997Z,1
2023-01-11T05:33:21.868Z,1.5
2023-01-11T05:34:22.605Z,1.600000024
2023-01-11T05:35:23.506Z,1.700000048
2023-01-11T05:36:54.990Z,1.600000024
2023-01-11T05:37:56.306Z,1.299999952
2023-01-11T05:38:57.457Z,2
2023-01-11T05:39:58.242Z,2
2023-01-11T05:40:59.202Z,1.200000048
2023-01-11T05:42:00.886Z,1.899999976
2023-01-11T05:43:01.744Z,4.300000191
2023-01-11T05:44:02.518Z,1.700000048
2023-01-11T05:45:03.304Z,2.299999952
2023-01-11T05:46:04.977Z,1.700000048
2023-01-11T05:47:05.790Z,2.900000095
2023-01-11T05:48:07.384Z,1.600000024
2023-01-11T05:49:08.261Z,1.899999976
2023-01-11T05:50:09.025Z,1.600000024
2023-01-11T05:51:09.818Z,1.399999976
2023-01-11T05:52:11.470Z,2.799999952
2023-01-11T05:53:12.315Z,1.5
2023-01-11T05:54:13.227Z,1.600000024
2023-01-11T05:55:13.964Z,1.899999976
2023-01-11T05:56:14.733Z,2.299999952
2023-01-11T05:57:15.666Z,1.700000048
2023-01-11T05:58:17.432Z,1.399999976
2023-01-11T05:59:18.485Z,1.799999952
2023-01-11T06:00:19.201Z,1.799999952
2023-01-11T06:01:20.028Z,2.099999905
2023-01-11T06:02:21.059Z,2.700000048
2023-01-11T06:03:21.967Z,1.799999952
2023-01-11T06:04:22.772Z,1.5
2023-01-11T06:05:24.110Z,2
2023-01-11T06:06:55.355Z,2.299999952
2023-01-11T06:07:56.869Z,4.300000191
2023-01-11T06:08:58.336Z,1.399999976
2023-01-11T06:09:59.306Z,1.899999976
2023-01-11T06:11:00.183Z,2.700000048
2023-01-11T06:12:01.076Z,2.5
2023-01-11T06:13:01.987Z,2.5
2023-01-11T06:14:02.910Z,2.099999905
2023-01-11T06:15:03.884Z,1.799999952
2023-01-11T06:16:05.390Z,1.600000024
2023-01-11T06:17:06.236Z,2.700000048
2023-01-11T06:18:07.824Z,1.5
2023-01-11T06:19:08.747Z,1.799999952
2023-01-11T06:20:09.696Z,3.200000048
2023-01-11T06:21:10.867Z,1.799999952
2023-01-11T06:22:12.849Z,2.299999952
2023-01-11T06:23:13.839Z,2.099999905
2023-01-11T06:24:15.024Z,3.900000095
2023-01-11T06:25:16.015Z,2.200000048
2023-01-11T06:26:16.886Z,2.099999905
2023-01-11T06:27:17.713Z,2.099999905
2023-01-11T06:28:19.259Z,1.899999976
2023-01-11T06:29:20.151Z,2.099999905
2023-01-11T06:30:21.063Z,2.400000095
2023-01-11T06:31:22.102Z,2.799999952
2023-01-11T06:32:22.892Z,2.799999952
2023-01-11T06:33:54.433Z,3
2023-01-11T06:34:55.229Z,2.400000095
2023-01-11T06:35:56.160Z,2.099999905
2023-01-11T06:36:57.103Z,1.899999976
2023-01-11T06:37:58.937Z,2
2023-01-11T06:38:59.760Z,2.099999905
2023-01-11T06:40:00.561Z,2.5
2023-01-11T06:41:01.491Z,1.600000024
2023-01-11T06:42:02.400Z,1.700000048
2023-01-11T06:43:03.387Z,3.700000048
2023-01-11T06:44:04.334Z,1.299999952
2023-01-11T06:45:05.135Z,1.899999976
2023-01-11T06:46:06.958Z,2.5
2023-01-11T06:47:07.729Z,1.600000024
2023-01-11T06:48:09.403Z,3.400000095
2023-01-11T06:49:10.301Z,2.5
2023-01-11T06:50:11.124Z,2.099999905
2023-01-11T06:51:12.127Z,1.399999976
2023-01-11T06:52:13.417Z,2.200000048
2023-01-11T06:53:14.404Z,3.5
2023-01-11T06:54:15.359Z,3.700000048
2023-01-11T06:55:16.243Z,2.299999952
2023-01-11T06:56:17.057Z,1.799999952
2023-01-11T06:57:17.934Z,2.5
2023-01-11T06:58:19.396Z,1.600000024
2023-01-11T06:59:20.355Z,2
2023-01-11T07:00:21.139Z,2
2023-01-11T07:01:22.139Z,1.5
2023-01-11T07:02:23.009Z,2.900000095
2023-01-11T07:03:54.565Z,1.399999976
2023-01-11T07:04:55.521Z,2.5
2023-01-11T07:05:56.324Z,2.400000095
2023-01-11T07:06:57.192Z,2.599999905
2023-01-11T07:07:59.979Z,2.299999952
2023-01-11T07:09:00.919Z,1.899999976
2023-01-11T07:10:01.771Z,2.099999905
2023-01-11T07:11:02.895Z,2.900000095
2023-01-11T07:12:03.755Z,4
2023-01-11T07:13:04.717Z,3.799999952
2023-01-11T07:14:05.540Z,1.899999976
2023-01-11T07:15:06.534Z,2
2023-01-11T07:16:08.425Z,3.599999905
2023-01-11T07:17:09.212Z,2.200000048
2023-01-11T07:18:10.901Z,2.099999905
2023-01-11T07:19:12.088Z,1.799999952
2023-01-11T07:20:13.026Z,5.099999905
2023-01-11T07:21:13.930Z,3.099999905
2023-01-11T07:22:15.030Z,2.700000048
2023-01-11T07:23:15.829Z,2.5
2023-01-11T07:24:16.663Z,1.600000024
2023-01-11T07:25:17.624Z,3.400000095
2023-01-11T07:26:19.486Z,3.900000095
2023-01-11T07:27:20.257Z,1.299999952
2023-01-11T07:28:21.907Z,3.799999952
2023-01-11T07:29:23.287Z,1.899999976
2023-01-11T07:30:58.740Z,2.400000095
2023-01-11T07:31:55.779Z,2.599999905
2023-01-11T07:32:56.855Z,6.5
2023-01-11T07:33:57.888Z,2
2023-01-11T07:34:58.815Z,1.600000024
2023-01-11T07:35:59.807Z,1.700000048
2023-01-11T07:37:00.688Z,2.200000048
2023-01-11T07:38:02.454Z,2.799999952
2023-01-11T07:39:03.305Z,3.200000048
2023-01-11T07:40:04.095Z,2.5
2023-01-11T07:41:04.927Z,5.300000191
2023-01-11T07:42:05.883Z,3.900000095
2023-01-11T07:43:06.826Z,3.799999952
2023-01-11T07:44:07.802Z,51.70000076
2023-01-11T07:45:08.567Z,23.29999924
2023-01-11T07:46:10.523Z,17.60000038
2023-01-11T07:47:11.438Z,4.599999905
2023-01-11T07:48:12.916Z,6.400000095
2023-01-11T07:49:13.788Z,3.200000048
2023-01-11T07:50:14.602Z,5
2023-01-11T07:51:15.416Z,2.900000095
2023-01-11T07:52:16.341Z,3
2023-01-11T07:53:17.248Z,2.5
2023-01-11T07:54:18.205Z,3
2023-01-11T07:55:19.006Z,2.900000095
2023-01-11T07:56:21.808Z,3.400000095
2023-01-11T07:57:21.234Z,3
2023-01-11T07:58:22.932Z,2.099999905
2023-01-11T07:59:54.280Z,5.199999809
2023-01-11T08:00:55.139Z,4.699999809
2023-01-11T08:01:56.875Z,3.5
2023-01-11T08:02:57.916Z,2.700000048
2023-01-11T08:03:58.817Z,3.099999905
2023-01-11T08:05:01.666Z,2.099999905
2023-01-11T08:06:00.428Z,3.799999952
2023-01-11T08:07:01.240Z,3.099999905
2023-01-11T08:08:02.092Z,3
2023-01-11T08:09:03.954Z,3.400000095
2023-01-11T08:10:04.876Z,4.199999809
2023-01-11T08:11:05.680Z,2.5
2023-01-11T08:12:06.375Z,3.299999952
2023-01-11T08:13:07.853Z,3.700000048
2023-01-11T08:14:08.773Z,2.799999952
2023-01-11T08:15:09.702Z,5.099999905
2023-01-11T08:16:10.644Z,3.200000048
2023-01-11T08:17:12.329Z,4.699999809
2023-01-11T08:18:13.168Z,3
2023-01-11T08:19:14.867Z,2.200000048
2023-01-11T08:20:15.729Z,4.199999809
2023-01-11T08:21:16.633Z,3.799999952
2023-01-11T08:22:17.455Z,4.300000191
2023-01-11T08:23:18.245Z,3.799999952
2023-01-11T08:24:19.497Z,4.699999809
2023-01-11T08:25:20.095Z,5.900000095
2023-01-11T08:26:21.962Z,5.400000095
2023-01-11T08:27:53.190Z,3.799999952
2023-01-11T08:28:54.812Z,3.200000048
2023-01-11T08:29:55.684Z,2
2023-01-11T08:30:56.581Z,4.400000095
2023-01-11T08:31:57.661Z,3.5
2023-01-11T08:32:58.493Z,2.5
2023-01-11T08:33:59.307Z,4.400000095
2023-01-11T08:35:00.160Z,2.700000048
2023-01-11T08:36:01.019Z,4.099999905
2023-01-11T08:37:01.888Z,2
2023-01-11T08:38:02.704Z,3
2023-01-11T08:39:04.307Z,1.299999952
2023-01-11T08:40:05.143Z,1.600000024
2023-01-11T08:41:06.036Z,4.300000191
2023-01-11T08:42:06.964Z,2.799999952
2023-01-11T08:43:07.847Z,3.5
2023-01-11T08:44:08.639Z,2.5
2023-01-11T08:45:09.490Z,3.200000048
2023-01-11T08:46:11.012Z,1.5
2023-01-11T08:47:11.834Z,2.299999952
2023-01-11T08:48:12.749Z,1.600000024
2023-01-11T08:49:14.334Z,2.5
2023-01-11T08:50:15.111Z,1.700000048
2023-01-11T08:51:15.954Z,2.900000095
2023-01-11T08:52:16.831Z,2.5
2023-01-11T08:53:17.683Z,3
2023-01-11T08:54:18.532Z,3.200000048
2023-01-11T08:55:19.417Z,9.300000191
2023-01-11T08:56:20.847Z,17.70000076
2023-01-11T08:57:22.263Z,12.69999981
2023-01-11T08:58:54.409Z,14
2023-01-11T08:59:55.234Z,14
2023-01-11T09:00:56.039Z,13
2023-01-11T09:01:56.978Z,15.30000019
2023-01-11T09:02:57.691Z,21.10000038
2023-01-11T09:03:58.570Z,13
2023-01-11T09:04:59.413Z,11.10000038
2023-01-11T09:06:00.194Z,13.19999981
2023-01-11T09:07:00.956Z,10.10000038
2023-01-11T09:08:01.767Z,9.399999619
2023-01-11T09:09:03.399Z,9.300000191
2023-01-11T09:10:04.931Z,9.199999809
2023-01-11T09:11:05.773Z,7.199999809
2023-01-11T09:12:06.630Z,11.19999981
2023-01-11T09:13:07.474Z,12.60000038
2023-01-11T09:14:08.317Z,13.60000038
2023-01-11T09:15:09.238Z,10.30000019
2023-01-11T09:16:10.223Z,11.60000038
2023-01-11T09:17:11.841Z,9.399999619
2023-01-11T09:18:12.645Z,7
2023-01-11T09:19:14.324Z,3.900000095
2023-01-11T09:20:15.213Z,4.300000191
2023-01-11T09:21:16.141Z,6.900000095
2023-01-11T09:22:17.005Z,5.400000095
2023-01-11T09:23:17.744Z,4.199999809
2023-01-11T09:24:18.593Z,9.100000381
2023-01-11T09:25:19.490Z,5.699999809
2023-01-11T09:26:20.932Z,7.099999905
2023-01-11T09:27:52.453Z,5.599999905
2023-01-11T09:28:53.956Z,4
2023-01-11T09:29:54.737Z,8.199999809
2023-01-11T09:30:55.695Z,10.19999981
2023-01-11T09:31:56.548Z,29.79999924
2023-01-11T09:32:57.645Z,37.90000153
2023-01-11T09:33:58.439Z,50.5
2023-01-11T09:34:59.238Z,105.3000031
2023-01-11T09:36:00.143Z,123.5999985
2023-01-11T09:37:01.124Z,242.1999969
2023-01-11T09:38:02.000Z,244.8999939
2023-01-11T09:39:03.375Z,184.6000061
2023-01-11T09:40:04.167Z,195.1999969
2023-01-11T09:41:05.004Z,106.5
2023-01-11T09:42:05.931Z,172
2023-01-11T09:43:06.747Z,101.1999969
2023-01-11T09:44:07.531Z,78.5
2023-01-11T09:45:08.342Z,101.1999969
2023-01-11T09:46:10.036Z,80.90000153
2023-01-11T09:47:10.900Z,204.3000031
2023-01-11T09:48:11.767Z,249.6999969
2023-01-11T09:49:13.375Z,257.8999939
2023-01-11T09:50:14.168Z,242.1999969
2023-01-11T09:51:15.009Z,233.1999969
2023-01-11T09:52:15.966Z,225.5
2023-01-11T09:53:16.846Z,226.5
2023-01-11T09:54:17.750Z,219.3999939
2023-01-11T09:55:18.493Z,158.8999939
2023-01-11T09:56:19.253Z,150.6999969
2023-01-11T09:57:20.152Z,92.80000305
2023-01-11T09:58:21.511Z,85.90000153
2023-01-11T09:59:53.773Z,123.1999969
2023-01-11T10:00:55.393Z,75.59999847
2023-01-11T10:01:56.119Z,75.40000153
2023-01-11T10:02:57.021Z,36.20000076
2023-01-11T10:03:58.160Z,56.29999924
2023-01-11T10:04:59.085Z,81.59999847
2023-01-11T10:05:59.856Z,46.09999847
2023-01-11T10:07:00.711Z,50.5
2023-01-11T10:18:22.721Z,31.39999962
2023-01-11T10:18:28.617Z,25.39999962
2023-01-11T10:18:28.855Z,24.10000038
2023-01-11T10:18:30.325Z,23.79999924
2023-01-11T10:18:33.611Z,41.90000153
2023-01-11T10:19:34.927Z,26
2023-01-11T10:20:15.574Z,14.80000019
2023-01-11T10:21:16.951Z,18.79999924
2023-01-11T10:22:17.845Z,15.39999962
2023-01-11T10:23:18.631Z,13.89999962
2023-01-11T10:24:19.566Z,13.30000019
2023-01-11T10:25:20.911Z,17.10000038
2023-01-11T10:26:52.497Z,14.69999981
2023-01-11T10:27:53.276Z,8.100000381
2023-01-11T10:28:54.093Z,13.19999981
2023-01-11T10:29:55.932Z,11.5
2023-01-11T10:30:56.813Z,7.400000095
2023-01-11T10:31:57.797Z,12
2023-01-11T10:32:58.583Z,11.69999981
2023-01-11T10:33:59.423Z,9.5
2023-01-11T10:35:00.335Z,9.899999619
2023-01-11T10:36:01.237Z,11.5
2023-01-11T10:37:02.954Z,15.60000038
2023-01-11T10:38:03.855Z,11.89999962
2023-01-11T10:39:05.474Z,12.69999981
2023-01-11T10:40:06.931Z,9.699999809
2023-01-11T10:41:07.884Z,12.60000038
2023-01-11T10:42:08.808Z,9.100000381
2023-01-11T10:43:09.641Z,9.5
2023-01-11T10:44:11.413Z,10.5
2023-01-11T10:45:12.273Z,8.100000381
2023-01-11T10:46:13.356Z,8.199999809
2023-01-11T10:47:14.277Z,6.800000191
2023-01-11T10:48:15.100Z,8.100000381
2023-01-11T10:49:16.909Z,5.900000095
2023-01-11T10:50:17.861Z,6.400000095
2023-01-11T10:51:18.786Z,6.199999809
2023-01-11T10:52:19.693Z,4.099999905
2023-01-11T10:53:21.042Z,6.900000095
2023-01-11T10:54:52.939Z,5.699999809
2023-01-11T10:55:53.835Z,7.800000191
2023-01-11T10:57:03.146Z,3.700000048
2023-01-11T10:58:01.868Z,4.300000191
2023-01-11T10:58:56.524Z,5.900000095
2023-01-11T10:59:58.382Z,3.900000095
2023-01-11T11:00:59.414Z,3.799999952
2023-01-11T11:02:00.861Z,3.599999905
2023-01-11T11:03:02.397Z,3.200000048
2023-01-11T11:04:03.368Z,3.599999905
2023-01-11T11:05:04.584Z,2.400000095
2023-01-11T11:06:05.662Z,1.899999976
2023-01-11T11:07:06.583Z,3.900000095
2023-01-11T11:08:08.405Z,2.900000095
2023-01-11T11:09:09.305Z,2.599999905
2023-01-11T11:10:10.876Z,2.700000048
2023-01-11T11:11:11.915Z,3.400000095
2023-01-11T11:12:12.886Z,2
2023-01-11T11:13:13.833Z,2.400000095
2023-01-11T11:14:15.854Z,2.299999952
2023-01-11T11:15:16.653Z,2.099999905
2023-01-11T11:16:17.894Z,2.599999905
2023-01-11T11:17:18.849Z,2.299999952
2023-01-11T11:18:19.716Z,1.600000024
2023-01-11T11:19:52.438Z,3.400000095
2023-01-11T11:20:53.376Z,3.799999952
2023-01-11T11:21:54.231Z,2.5
2023-01-11T11:22:55.175Z,3.799999952
2023-01-11T11:23:59.449Z,1.899999976
2023-01-11T11:25:00.309Z,2
2023-01-11T11:26:01.211Z,2.400000095
2023-01-11T11:27:03.523Z,3.599999905
2023-01-11T11:28:04.461Z,2.799999952
2023-01-11T11:29:05.327Z,2.700000048
2023-01-11T11:30:06.817Z,2
2023-01-11T11:31:07.746Z,3.799999952
2023-01-11T11:32:08.695Z,3.299999952
2023-01-11T11:33:09.637Z,4
2023-01-11T11:34:11.342Z,2.299999952
2023-01-11T11:35:12.225Z,2.799999952
2023-01-11T11:36:13.162Z,2.5
2023-01-11T11:37:14.066Z,3.5
2023-01-11T11:38:14.954Z,4
2023-01-11T11:39:16.415Z,1.899999976
2023-01-11T11:40:17.846Z,2.799999952
2023-01-11T11:41:18.790Z,3.099999905
2023-01-11T11:42:19.556Z,3.299999952
2023-01-11T11:43:51.908Z,1.700000048
2023-01-11T11:44:52.842Z,2.799999952
2023-01-11T11:45:54.866Z,2.299999952
2023-01-11T11:46:55.619Z,2.200000048
2023-01-11T11:47:59.228Z,3.200000048
2023-01-11T11:49:00.128Z,2.400000095
2023-01-11T11:50:01.938Z,3
2023-01-11T11:51:02.835Z,2.200000048